Time;durP1;ratioP1;P1;durP2;ratioP2;P2;SDS_P1;SDS_P2;PMS_P1;PMS_P2;Temp;Humidity;BMP_temperature;BMP_pressure;BME280_temperature;BME280_humidity;BME280_pressure;Samples;Min_cycle;Max_cycle;Signal;HPM_P1;HPM_P2
2023/03/14 00:01:44;;;;;;;5.27;2.63;;;;;;;5.66;62.34;96077.66;6284894;28;20323;-37
2023/03/14 00:04:47;;;;;;;3.23;2.90;;;;;;;5.49;62.66;96058.47;6284123;28;20869;-37
2023/03/14 00:07:49;;;;;;;6.03;2.70;;;;;;;5.40;62.92;96050.19;6283494;28;20231;-37
2023/03/14 00:10:51;;;;;;;3.67;2.57;;;;;;;5.24;63.52;96043.16;6280190;28;20967;-37
2023/03/14 00:13:53;;;;;;;3.40;2.67;;;;;;;5.11;63.60;96041.69;6281119;28;20231;-37
2023/03/14 00:16:55;;;;;;;5.33;2.60;;;;;;;5.02;63.89;96039.72;6286325;28;20848;-37
2023/03/14 00:20:03;;;;;;;4.27;2.43;;;;;;;4.76;63.95;95989.31;6281278;28;20244;-37
2023/03/14 00:23:05;;;;;;;4.03;2.57;;;;;;;4.71;63.67;95993.72;6283015;28;20233;-37
2023/03/14 00:26:14;;;;;;;3.10;2.23;;;;;;;4.82;64.02;96021.81;6282404;28;20245;-38
2023/03/14 00:29:16;;;;;;;4.10;2.70;;;;;;;4.73;64.84;96026.75;6280920;28;20233;-37
2023/03/14 00:32:19;;;;;;;6.13;2.90;;;;;;;4.69;65.18;96014.28;6270418;28;20241;-37
2023/03/14 00:35:22;;;;;;;3.67;2.40;;;;;;;4.71;65.66;96023.53;6285198;28;20259;-37
2023/03/14 00:38:24;;;;;;;4.73;2.73;;;;;;;4.65;66.51;96020.03;6280466;28;20732;-37
2023/03/14 00:41:26;;;;;;;5.53;3.43;;;;;;;4.44;65.89;95972.59;6282296;28;20226;-37
2023/03/14 00:44:29;;;;;;;2.50;2.20;;;;;;;4.65;66.65;96011.34;6269872;28;20592;-38
2023/03/14 00:47:31;;;;;;;3.77;2.60;;;;;;;4.68;66.30;95996.84;6285617;28;20235;-37
2023/03/14 00:50:33;;;;;;;3.23;2.53;;;;;;;4.66;66.18;96000.53;6283101;28;20233;-38
2023/03/14 00:53:37;;;;;;;4.03;2.70;;;;;;;4.66;66.55;95994.47;6281834;28;20643;-38
2023/03/14 00:56:39;;;;;;;3.40;2.20;;;;;;;4.64;66.06;95986.00;6287149;28;20326;-37
2023/03/14 00:59:41;;;;;;;4.40;2.60;;;;;;;4.61;66.06;95989.13;6283240;28;20431;-37
2023/03/14 01:02:43;;;;;;;4.90;2.70;;;;;;;4.39;65.98;95954.84;6282229;28;20236;-37
2023/03/14 01:05:45;;;;;;;3.30;2.13;;;;;;;4.54;66.00;95977.97;6280978;28;20239;-37
2023/03/14 01:08:49;;;;;;;2.57;2.03;;;;;;;4.53;66.06;95971.09;6285806;28;20262;-37
2023/03/14 01:11:52;;;;;;;4.03;2.50;;;;;;;4.48;65.79;95968.38;6283015;28;20234;-37
2023/03/14 01:14:54;;;;;;;4.43;2.87;;;;;;;4.39;66.09;95968.03;6286778;28;20236;-37
2023/03/14 01:17:56;;;;;;;4.03;2.20;;;;;;;4.35;66.24;95965.09;6282413;28;20241;-37
2023/03/14 01:20:58;;;;;;;3.17;2.10;;;;;;;4.30;66.32;95965.03;6259312;28;20232;-37
2023/03/14 01:24:03;;;;;;;3.70;2.50;;;;;;;4.29;66.43;95965.28;6247047;28;20777;-37
2023/03/14 01:27:05;;;;;;;4.30;2.47;;;;;;;4.24;66.19;95966.00;6282053;28;20235;-37
2023/03/14 01:30:09;;;;;;;2.57;2.10;;;;;;;4.21;66.40;95961.22;6263283;28;20210;-37
2023/03/14 01:33:14;;;;;;;4.70;2.60;;;;;;;4.16;66.51;95945.31;6283398;28;20252;-37
2023/03/14 01:36:18;;;;;;;4.20;2.43;;;;;;;4.13;66.96;95943.16;6281762;28;20246;-37
2023/03/14 01:39:20;;;;;;;5.27;2.60;;;;;;;4.08;66.54;95946.53;6263165;28;20354;-37
2023/03/14 01:42:22;;;;;;;3.53;2.20;;;;;;;4.04;66.75;95950.72;6266482;28;20234;-38
2023/03/14 01:46:02;;;;;;;3.87;2.23;;;;;;;3.97;66.95;95950.06;6266393;28;20233;-38
2023/03/14 01:49:14;;;;;;;4.00;2.40;;;;;;;3.92;67.09;95949.22;6263047;28;20238;-37
2023/03/14 01:52:33;;;;;;;2.80;2.47;;;;;;;3.85;67.11;95957.28;6265745;28;20238;-38
2023/03/14 01:55:36;;;;;;;3.33;2.33;;;;;;;3.81;67.14;95962.22;6267529;28;20238;-36
2023/03/14 01:58:42;;;;;;;4.13;1.90;;;;;;;3.78;67.28;95969.81;6288948;28;20241;-36
2023/03/14 02:01:47;;;;;;;2.67;1.80;;;;;;;3.72;67.16;95961.03;6272885;28;20314;-36
2023/03/14 02:04:50;;;;;;;3.77;2.20;;;;;;;3.63;67.68;95967.75;6270856;28;20576;-38
2023/03/14 02:07:58;;;;;;;3.77;1.97;;;;;;;3.58;67.75;95963.19;6286532;28;20230;-38
2023/03/14 02:11:08;;;;;;;3.37;2.20;;;;;;;3.57;67.82;95958.19;6265726;28;20397;-38
2023/03/14 02:14:38;;;;;;;5.27;2.20;;;;;;;3.53;67.95;95960.47;6268276;28;20235;-38
2023/03/14 02:18:06;;;;;;;2.60;1.90;;;;;;;3.51;68.06;95959.94;6271486;28;20244;-38
2023/03/14 02:21:43;;;;;;;2.77;1.90;;;;;;;3.47;68.22;95953.53;6198027;28;20245;-38
2023/03/14 02:24:57;;;;;;;2.57;1.97;;;;;;;3.43;68.53;95959.53;6268469;28;20240;-38
2023/03/14 02:28:01;;;;;;;2.33;1.70;;;;;;;3.41;68.46;95967.66;6267057;28;20367;-38
2023/03/14 02:31:03;;;;;;;2.77;2.33;;;;;;;3.40;68.69;95973.97;6264484;28;20399;-38
2023/03/14 02:34:08;;;;;;;3.87;2.03;;;;;;;3.40;68.95;95973.97;6284648;28;20245;-38
2023/03/14 02:37:13;;;;;;;3.13;1.80;;;;;;;3.41;69.21;95990.56;6286473;28;20233;-38
2023/03/14 02:40:16;;;;;;;4.60;2.00;;;;;;;3.27;69.46;95972.44;6266409;28;20742;-38
2023/03/14 02:43:18;;;;;;;3.10;2.00;;;;;;;3.52;69.36;96008.13;6267400;28;20249;-38
2023/03/14 02:46:27;;;;;;;4.27;1.90;;;;;;;3.51;69.79;96017.84;6267223;28;20238;-38
2023/03/14 02:49:33;;;;;;;4.50;1.93;;;;;;;3.59;69.70;96006.09;6263261;28;20391;-39
2023/03/14 02:52:35;;;;;;;2.97;1.80;;;;;;;3.66;69.84;96027.03;6270248;28;20257;-38
2023/03/14 02:55:37;;;;;;;3.50;2.13;;;;;;;3.71;70.01;96020.03;6289912;28;20264;-38
2023/03/14 02:58:45;;;;;;;3.30;2.00;;;;;;;3.38;69.91;95965.50;6267271;28;20234;-38
2023/03/14 03:02:16;;;;;;;2.13;1.90;;;;;;;3.85;70.05;96046.84;6271866;28;20265;-38
2023/03/14 03:05:18;;;;;;;3.07;2.07;;;;;;;3.21;69.76;95927.88;6283837;28;20807;-38
2023/03/14 03:08:22;;;;;;;2.70;2.10;;;;;;;3.86;69.88;96058.97;6291694;28;20217;-38
2023/03/14 03:11:25;;;;;;;9.77;6.67;;;;;;;3.83;70.05;96054.97;6282011;28;20280;-38
2023/03/14 03:14:27;;;;;;;7.57;4.90;;;;;;;3.77;70.05;96021.69;6265263;28;20238;-38
2023/03/14 03:17:33;;;;;;;7.33;4.90;;;;;;;3.80;70.05;96052.81;6265862;28;20701;-38
2023/03/14 03:20:35;;;;;;;5.03;2.77;;;;;;;3.78;70.28;96041.72;6266237;28;20240;-38
2023/03/14 03:23:37;;;;;;;3.20;2.23;;;;;;;3.82;70.29;96048.09;6284650;28;20245;-38
2023/03/14 03:26:40;;;;;;;3.57;1.80;;;;;;;3.59;70.35;96019.28;6269550;28;20702;-39
2023/03/14 03:29:44;;;;;;;2.77;1.97;;;;;;;3.79;70.33;96051.25;6265399;28;20435;-38
2023/03/14 03:32:46;;;;;;;2.50;1.97;;;;;;;3.72;70.57;96053.22;6268959;28;20249;-47
2023/03/14 03:35:50;;;;;;;4.00;2.17;;;;;;;3.87;70.38;96068.47;6266467;28;20244;-38
2023/03/14 03:39:02;;;;;;;3.17;1.93;;;;;;;3.93;70.54;96069.34;6264159;28;20271;-37
2023/03/14 03:42:05;;;;;;;2.63;1.90;;;;;;;4.01;70.11;96082.13;6268721;28;20288;-38
2023/03/14 03:45:08;;;;;;;3.43;2.00;;;;;;;3.98;70.47;96080.75;6284198;28;20217;-38
2023/03/14 03:48:16;;;;;;;2.87;1.93;;;;;;;4.01;70.28;96082.13;6270523;28;20571;-47
2023/03/14 03:51:18;;;;;;;3.70;2.20;;;;;;;4.03;70.16;96090.56;6265115;28;20226;-38
2023/03/14 03:54:20;;;;;;;2.47;2.13;;;;;;;4.06;70.20;96090.91;6265428;28;20210;-38
2023/03/14 03:57:22;;;;;;;3.40;2.27;;;;;;;4.07;70.05;96096.97;6265423;28;20249;-43
2023/03/14 04:00:24;;;;;;;4.00;2.43;;;;;;;4.04;70.20;96071.09;6286070;28;20382;-38
2023/03/14 04:03:26;;;;;;;2.83;2.40;;;;;;;4.10;69.90;96080.69;6286782;28;20248;-38
2023/03/14 04:06:30;;;;;;;3.93;1.93;;;;;;;4.14;69.97;96063.38;6264218;28;20252;-38
2023/03/14 04:09:34;;;;;;;3.33;2.30;;;;;;;4.06;69.65;96053.22;6284746;28;20232;-38
2023/03/14 04:12:53;;;;;;;4.43;2.17;;;;;;;4.03;70.09;96082.69;6283849;28;20226;-37
2023/03/14 04:15:58;;;;;;;3.10;2.40;;;;;;;4.03;70.28;96082.69;6282976;28;20261;-38
2023/03/14 04:19:03;;;;;;;3.30;2.30;;;;;;;4.04;70.64;96100.06;6267681;28;20237;-38
2023/03/14 04:22:06;;;;;;;4.97;2.90;;;;;;;4.00;70.63;96094.50;6264796;28;20242;-38
2023/03/14 04:25:17;;;;;;;4.23;2.67;;;;;;;4.03;70.80;96101.91;6270469;28;20239;-38
2023/03/14 04:28:23;;;;;;;3.63;2.07;;;;;;;4.08;70.83;96117.00;6273872;28;20234;-38
2023/03/14 04:31:25;;;;;;;3.77;2.10;;;;;;;4.21;70.73;96124.59;6279196;28;20237;-38
2023/03/14 04:34:28;;;;;;;2.93;2.30;;;;;;;4.29;70.54;96126.84;6266348;28;20267;-38
2023/03/14 04:37:31;;;;;;;3.90;2.73;;;;;;;4.29;70.30;96126.84;6262062;28;20266;-39
2023/03/14 04:40:36;;;;;;;4.07;2.70;;;;;;;4.34;70.10;96119.03;6282354;28;20234;-38
2023/03/14 04:43:40;;;;;;;4.53;2.67;;;;;;;4.42;69.93;96111.75;6264058;28;20234;-39
2023/03/14 04:46:45;;;;;;;2.90;2.13;;;;;;;4.34;69.72;96061.03;6264762;28;20237;-38
2023/03/14 04:49:47;;;;;;;3.73;2.10;;;;;;;4.59;69.73;96086.16;6260189;28;20658;-38
2023/03/14 04:52:50;;;;;;;3.07;2.10;;;;;;;4.63;69.82;96095.97;6263863;28;20254;-38
2023/03/14 04:55:55;;;;;;;5.13;2.20;;;;;;;4.68;69.62;96105.81;6285632;28;20318;-39
2023/03/14 04:59:00;;;;;;;3.90;2.80;;;;;;;4.75;69.42;96109.06;6262801;28;20251;-38
2023/03/14 05:02:03;;;;;;;4.17;2.70;;;;;;;4.75;69.69;96118.81;6247458;28;20760;-38
2023/03/14 05:05:25;;;;;;;2.83;2.03;;;;;;;4.86;69.41;96113.41;6244413;28;20230;-37
2023/03/14 05:08:42;;;;;;;3.03;2.13;;;;;;;4.84;69.29;96107.59;6284503;28;20231;-38
2023/03/14 05:12:03;;;;;;;4.50;2.57;;;;;;;4.94;68.91;96137.81;6281396;28;20706;-37
2023/03/14 05:15:26;;;;;;;3.17;2.53;;;;;;;4.91;68.96;96128.53;6281666;28;20243;-38
2023/03/14 05:18:53;;;;;;;3.33;2.27;;;;;;;5.02;68.68;96166.41;6237553;28;20561;-38
2023/03/14 05:22:05;;;;;;;5.13;2.33;;;;;;;5.00;68.66;96171.13;6281599;28;20260;-38
2023/03/14 05:25:25;;;;;;;4.53;2.10;;;;;;;4.96;68.80;96160.25;6283676;28;20267;-37
2023/03/14 05:28:42;;;;;;;2.40;2.03;;;;;;;4.97;69.08;96158.41;6266141;28;20848;-38
2023/03/14 05:31:52;;;;;;;2.77;2.10;;;;;;;5.00;69.21;96155.28;6282509;28;20250;-38
2023/03/14 05:35:03;;;;;;;2.90;2.13;;;;;;;5.00;69.26;96147.38;6250630;28;20769;-38
2023/03/14 05:38:22;;;;;;;3.00;2.60;;;;;;;5.02;69.41;96151.34;6280824;28;20234;-38
2023/03/14 05:41:36;;;;;;;3.03;1.90;;;;;;;5.03;69.52;96162.75;6262882;28;20241;-37
2023/03/14 05:44:57;;;;;;;3.13;2.13;;;;;;;5.09;69.55;96164.41;6281936;28;20267;-38
2023/03/14 05:48:25;;;;;;;2.80;2.20;;;;;;;5.18;69.74;96205.97;6254210;28;20699;-38
2023/03/14 05:51:36;;;;;;;3.23;2.47;;;;;;;5.28;69.74;96204.50;6283058;28;20254;-38
2023/03/14 05:55:07;;;;;;;2.83;2.10;;;;;;;5.39;69.55;96201.75;6214640;28;20718;-38
2023/03/14 05:58:10;;;;;;;2.43;2.10;;;;;;;5.46;69.64;96213.97;6282314;28;20302;-38
2023/03/14 06:01:44;;;;;;;3.10;2.43;;;;;;;5.51;69.56;96217.47;6272079;28;20315;-37
2023/03/14 06:04:53;;;;;;;2.57;1.90;;;;;;;5.63;69.34;96204.16;6279066;28;20258;-37
2023/03/14 06:07:55;;;;;;;3.87;2.10;;;;;;;5.65;69.49;96210.78;6281483;28;20239;-37
2023/03/14 06:10:58;;;;;;;3.17;2.13;;;;;;;5.77;69.13;96196.66;6281762;28;20239;-37
2023/03/14 06:14:04;;;;;;;3.30;1.93;;;;;;;5.86;69.05;96209.19;6267272;28;20234;-37
2023/03/14 06:17:06;;;;;;;2.93;2.03;;;;;;;5.95;68.85;96206.91;6262868;28;20231;-38
2023/03/14 06:20:16;;;;;;;4.37;1.70;;;;;;;6.04;68.78;96197.47;6283353;28;20244;-38
2023/03/14 06:23:18;;;;;;;2.10;1.90;;;;;;;6.17;68.26;96215.59;6280447;28;20234;-38
2023/03/14 06:26:22;;;;;;;3.20;1.90;;;;;;;6.25;68.34;96192.38;6262629;28;20313;-38
2023/03/14 06:29:25;;;;;;;1.87;1.50;;;;;;;6.28;68.01;96195.34;6285298;28;20241;-38
2023/03/14 06:32:27;;;;;;;2.93;1.73;;;;;;;6.18;68.19;96176.75;6267710;28;20328;-38
2023/03/14 06:35:34;;;;;;;2.50;1.70;;;;;;;6.44;68.16;96198.91;6262968;28;20332;-38
2023/03/14 06:38:36;;;;;;;2.10;1.90;;;;;;;6.57;67.88;96192.41;6285239;28;20706;-38
2023/03/14 06:41:39;;;;;;;4.03;2.20;;;;;;;6.65;67.94;96184.00;6284712;28;20248;-38
2023/03/14 06:44:43;;;;;;;7.20;4.70;;;;;;;6.75;67.50;96194.69;6265121;28;20231;-38
2023/03/14 06:47:45;;;;;;;3.47;2.80;;;;;;;6.81;66.91;96193.66;6266793;28;20238;-38
2023/03/14 06:50:48;;;;;;;3.67;2.03;;;;;;;6.94;66.77;96190.56;6263306;28;20231;-38
2023/03/14 06:53:51;;;;;;;2.13;1.93;;;;;;;7.07;66.61;96185.88;6269115;28;20238;-38
2023/03/14 06:56:56;;;;;;;3.10;2.10;;;;;;;7.27;66.71;96187.84;6273435;28;20241;-37
2023/03/14 06:59:58;;;;;;;2.40;1.80;;;;;;;7.40;66.39;96198.78;6268238;28;20617;-37
2023/03/14 07:03:01;;;;;;;1.67;1.50;;;;;;;7.54;65.11;96161.19;6266652;28;20237;-36
2023/03/14 07:06:07;;;;;;;2.07;1.70;;;;;;;8.03;65.59;96185.50;6269053;28;20224;-36
2023/03/14 07:09:10;;;;;;;3.63;1.80;;;;;;;8.28;66.87;96174.91;6279142;28;20245;-36
2023/03/14 07:12:16;;;;;;;2.63;0.97;;;;;;;9.27;65.35;96204.63;6267764;28;20572;-36
2023/03/14 07:15:19;;;;;;;1.37;0.80;;;;;;;9.71;65.00;96206.63;6266598;28;20228;-37
2023/03/14 07:18:26;;;;;;;0.60;0.60;;;;;;;10.27;63.62;96210.88;6269113;28;20230;-37
2023/03/14 07:21:31;;;;;;;0.60;0.60;;;;;;;10.97;61.89;96215.97;6284336;28;20227;-36
2023/03/14 07:24:34;;;;;;;0.60;0.60;;;;;;;11.32;59.35;96218.28;6270294;28;20238;-37
2023/03/14 07:27:36;;;;;;;0.40;0.40;;;;;;;11.57;58.18;96214.53;6271019;28;20322;-41
2023/03/14 07:30:38;;;;;;;0.37;0.37;;;;;;;11.70;57.34;96220.28;6278317;28;20602;-36
2023/03/14 07:33:48;;;;;;;0.33;0.33;;;;;;;11.87;56.24;96224.13;6264021;28;20235;-42
2023/03/14 07:36:51;;;;;;;0.40;0.40;;;;;;;11.89;56.39;96226.50;6257817;28;20241;-37
2023/03/14 07:39:53;;;;;;;0.30;0.30;;;;;;;12.10;55.67;96221.69;6259800;28;20315;-37
2023/03/14 07:42:59;;;;;;;0.10;0.10;;;;;;;12.02;54.04;96201.78;6257610;28;20610;-37
2023/03/14 07:46:11;;;;;;;0.37;0.37;;;;;;;12.29;54.53;96213.72;6257704;28;20242;-37
2023/03/14 07:49:14;;;;;;;0.20;0.20;;;;;;;12.49;53.70;96215.28;6252069;28;20246;-37
2023/03/14 07:52:16;;;;;;;0.30;0.30;;;;;;;12.38;54.75;96207.44;6261559;28;20327;-37
2023/03/14 07:55:18;;;;;;;0.50;0.30;;;;;;;12.34;55.01;96200.28;6260297;28;20250;-37
2023/03/14 07:58:24;;;;;;;0.23;0.23;;;;;;;12.04;54.71;96180.16;6257851;28;20235;-36
2023/03/14 08:01:26;;;;;;;0.20;0.20;;;;;;;12.22;54.96;96215.94;6258403;28;20235;-37
2023/03/14 08:04:28;;;;;;;0.30;0.30;;;;;;;12.05;54.88;96198.53;6259158;28;20677;-37
2023/03/14 08:07:30;;;;;;;0.30;0.30;;;;;;;12.27;54.15;96216.66;6257413;28;20253;-37
2023/03/14 08:10:33;;;;;;;0.40;0.40;;;;;;;12.06;54.54;96184.09;6258633;28;20234;-37
2023/03/14 08:13:37;;;;;;;1.00;0.30;;;;;;;12.05;55.56;96184.41;6246379;28;20381;-37
2023/03/14 08:16:39;;;;;;;0.20;0.20;;;;;;;12.06;55.65;96193.97;6255991;28;20246;-37
2023/03/14 08:19:42;;;;;;;0.47;0.20;;;;;;;12.00;54.58;96197.81;6258743;28;20237;-37
2023/03/14 08:22:44;;;;;;;0.20;0.20;;;;;;;11.94;55.06;96178.41;6262648;28;20223;-37
2023/03/14 08:25:50;;;;;;;1.10;0.27;;;;;;;12.07;54.36;96191.03;6258208;28;20611;-37
2023/03/14 08:28:52;;;;;;;0.30;0.30;;;;;;;12.01;54.45;96204.72;6259720;28;20620;-37
2023/03/14 08:31:54;;;;;;;0.30;0.30;;;;;;;11.73;54.87;96174.38;6256608;28;20428;-37
2023/03/14 08:34:56;;;;;;;0.30;0.30;;;;;;;11.98;54.97;96213.31;6256966;28;20221;-37
2023/03/14 08:37:59;;;;;;;0.37;0.20;;;;;;;11.87;53.89;96176.09;6276938;28;20262;-37
2023/03/14 08:41:02;;;;;;;1.23;0.30;;;;;;;12.03;53.90;96203.38;6282115;28;20226;-37
2023/03/14 08:44:04;;;;;;;0.10;0.10;;;;;;;11.91;54.29;96191.50;6282982;28;20226;-37
2023/03/14 08:47:06;;;;;;;0.27;0.20;;;;;;;12.03;54.31;96192.69;6281577;28;20314;-37
2023/03/14 08:50:10;;;;;;;0.20;0.20;;;;;;;12.06;55.27;96193.97;6280576;28;20235;-37
2023/03/14 08:53:17;;;;;;;0.67;0.30;;;;;;;11.90;55.23;96163.25;6268815;28;20240;-37
2023/03/14 08:56:20;;;;;;;0.20;0.20;;;;;;;11.82;55.08;96154.81;6283787;28;20245;-37
2023/03/14 08:59:22;;;;;;;0.47;0.30;;;;;;;12.05;55.74;96187.06;6284034;28;20279;-37
2023/03/14 09:02:25;;;;;;;0.20;0.20;;;;;;;12.07;55.28;96193.72;6284138;28;20326;-37
2023/03/14 09:05:27;;;;;;;0.13;0.13;;;;;;;12.10;55.67;96195.78;6280203;28;20232;-37
2023/03/14 09:08:29;;;;;;;0.20;0.20;;;;;;;12.11;55.63;96177.91;6281721;28;20334;-37
2023/03/14 09:11:32;;;;;;;0.20;0.20;;;;;;;12.19;55.58;96181.81;6285546;28;20288;-37
2023/03/14 09:14:35;;;;;;;0.40;0.30;;;;;;;12.04;55.13;96148.13;6281633;28;20644;-36
2023/03/14 09:17:38;;;;;;;0.37;0.20;;;;;;;12.28;55.41;96185.41;6281753;28;20225;-37
2023/03/14 09:20:40;;;;;;;0.20;0.20;;;;;;;12.26;54.08;96184.91;6288462;28;20217;-37
2023/03/14 09:23:42;;;;;;;0.20;0.20;;;;;;;12.00;53.98;96142.56;6283302;28;20775;-37
2023/03/14 09:26:47;;;;;;;0.20;0.20;;;;;;;12.23;53.78;96170.28;6276482;28;20751;-37
2023/03/14 09:29:49;;;;;;;0.30;0.30;;;;;;;12.30;54.66;96181.38;6281120;28;20328;-36
2023/03/14 09:32:51;;;;;;;0.20;0.20;;;;;;;12.19;54.99;96173.81;6264764;28;20245;-36
2023/03/14 09:35:53;;;;;;;1.50;0.30;;;;;;;12.26;54.73;96190.25;6280925;28;20253;-37
2023/03/14 09:38:55;;;;;;;0.37;0.30;;;;;;;12.17;55.70;96183.97;6281403;28;20238;-37
2023/03/14 09:42:03;;;;;;;0.10;0.10;;;;;;;12.18;55.80;96185.56;6278287;28;20294;-37
2023/03/14 09:45:10;;;;;;;0.20;0.20;;;;;;;12.17;55.77;96189.28;6283873;28;20761;-36
2023/03/14 09:48:19;;;;;;;0.10;0.10;;;;;;;12.17;56.39;96178.63;6280281;28;20628;-36
2023/03/14 09:51:23;;;;;;;0.20;0.20;;;;;;;12.16;56.05;96177.81;6278577;28;20575;-37
2023/03/14 09:54:40;;;;;;;0.80;0.20;;;;;;;12.14;56.81;96191.47;6280244;28;20234;-36
2023/03/14 09:57:45;;;;;;;0.67;0.30;;;;;;;11.60;56.93;96096.63;6283261;28;20316;-37
2023/03/14 10:00:47;;;;;;;0.30;0.30;;;;;;;12.30;56.43;96180.56;6280607;28;20232;-37
2023/03/14 10:03:54;;;;;;;0.20;0.20;;;;;;;12.49;56.17;96183.25;6284059;28;21061;-37
2023/03/14 10:06:56;;;;;;;0.27;0.27;;;;;;;12.56;55.83;96183.66;6279972;28;20262;-37
2023/03/14 10:09:59;;;;;;;0.40;0.37;;;;;;;12.59;55.30;96151.81;6279909;28;20938;-36
2023/03/14 10:13:23;;;;;;;0.20;0.20;;;;;;;12.93;54.77;96172.09;6285121;28;20760;-37
2023/03/14 10:16:31;;;;;;;0.30;0.30;;;;;;;13.02;54.61;96196.28;6285598;28;20318;-37
2023/03/14 10:19:35;;;;;;;0.20;0.20;;;;;;;13.03;54.53;96204.00;6287196;28;20231;-36
2023/03/14 10:22:38;;;;;;;1.03;0.20;;;;;;;12.94;54.85;96200.41;6285744;28;20698;-37
2023/03/14 10:25:42;;;;;;;0.20;0.20;;;;;;;12.87;52.39;96200.81;6285656;28;20375;-37
2023/03/14 10:28:47;;;;;;;1.03;0.37;;;;;;;12.79;53.50;96200.66;6281289;28;20240;-37
2023/03/14 10:31:51;;;;;;;0.20;0.20;;;;;;;12.74;54.47;96206.09;6284039;28;20240;-36
2023/03/14 10:35:07;;;;;;;0.50;0.50;;;;;;;12.57;55.52;96199.41;6267570;28;20602;-37
2023/03/14 10:38:16;;;;;;;0.30;0.23;;;;;;;12.35;53.28;96194.63;6285180;28;20314;-37
2023/03/14 10:41:27;;;;;;;0.33;0.30;;;;;;;12.26;54.31;96212.38;6287508;28;20238;-37
2023/03/14 10:44:30;;;;;;;0.53;0.40;;;;;;;11.96;55.97;96216.25;6285317;28;20243;-36
2023/03/14 10:47:33;;;;;;;0.50;0.50;;;;;;;11.59;57.32;96185.75;6287126;28;20238;-36
2023/03/14 10:50:36;;;;;;;0.50;0.43;;;;;;;11.11;58.30;96159.06;6286239;28;20767;-37
2023/03/14 10:53:47;;;;;;;0.50;0.50;;;;;;;11.43;58.28;96213.66;6288057;28;20239;-37
2023/03/14 10:56:58;;;;;;;0.67;0.40;;;;;;;11.17;58.60;96178.44;6288471;28;20375;-37
2023/03/14 11:00:02;;;;;;;0.23;0.23;;;;;;;11.08;58.67;96186.28;6283963;28;20237;-37
2023/03/14 11:03:13;;;;;;;0.30;0.30;;;;;;;11.07;58.33;96192.66;6285289;28;20227;-36
2023/03/14 11:06:28;;;;;;;0.57;0.37;;;;;;;11.29;57.27;96213.53;6287134;28;20311;-38
2023/03/14 11:09:46;;;;;;;0.20;0.20;;;;;;;11.34;57.23;96210.03;6283963;28;20237;-37
2023/03/14 11:13:12;;;;;;;0.40;0.40;;;;;;;11.30;55.56;96212.44;6284508;28;20483;-36
2023/03/14 11:17:07;;;;;;;0.27;0.23;;;;;;;11.25;55.90;96217.03;6271200;28;20294;-37
2023/03/14 11:20:32;;;;;;;0.23;0.23;;;;;;;11.36;55.91;96223.84;6268319;28;20229;-37
2023/03/14 11:24:02;;;;;;;0.20;0.20;;;;;;;11.18;56.01;96221.88;6271088;28;20663;-37
2023/03/14 11:27:18;;;;;;;0.40;0.23;;;;;;;11.15;54.98;96187.81;6282231;28;20279;-36
2023/03/14 11:30:41;;;;;;;0.30;0.30;;;;;;;11.22;55.29;96228.25;6283496;28;20224;-37
2023/03/14 11:34:01;;;;;;;0.30;0.30;;;;;;;11.12;54.92;96181.16;6280480;28;20268;-37
2023/03/14 11:37:03;;;;;;;0.30;0.30;;;;;;;11.32;55.04;96220.16;6284276;28;20324;-37
2023/03/14 11:40:19;;;;;;;0.63;0.23;;;;;;;11.37;53.73;96204.91;6283543;28;20389;-37
2023/03/14 11:43:39;;;;;;;0.20;0.20;;;;;;;11.16;55.16;96189.41;6284629;28;20241;-37
2023/03/14 11:46:50;;;;;;;0.53;0.40;;;;;;;11.39;54.52;96196.63;6287955;28;20353;-37
2023/03/14 11:50:17;;;;;;;0.57;0.20;;;;;;;11.40;54.52;96202.75;6284062;28;20597;-37
2023/03/14 11:54:03;;;;;;;0.30;0.30;;;;;;;11.57;55.08;96200.41;6283266;28;20237;-36
2023/03/14 11:57:15;;;;;;;0.67;0.40;;;;;;;11.47;54.43;96192.53;6282599;28;20309;-36
2023/03/14 12:00:19;;;;;;;0.40;0.30;;;;;;;11.32;53.99;96209.50;6283976;28;20238;-36
2023/03/14 12:03:33;;;;;;;0.30;0.20;;;;;;;11.28;54.45;96208.47;6286276;28;20241;-36
2023/03/14 12:06:48;;;;;;;0.43;0.37;;;;;;;11.08;54.23;96209.44;6285241;28;20240;-36
2023/03/14 12:09:51;;;;;;;0.93;0.30;;;;;;;11.08;54.46;96204.94;6283503;28;20250;-36
2023/03/14 12:12:53;;;;;;;0.83;0.20;;;;;;;10.94;53.74;96212.00;6267242;28;20710;-37
2023/03/14 12:16:00;;;;;;;0.73;0.30;;;;;;;10.74;54.26;96207.63;6283728;28;20371;-37
2023/03/14 12:19:25;;;;;;;0.77;0.20;;;;;;;10.66;54.46;96204.75;6286045;28;20960;-37
2023/03/14 12:22:29;;;;;;;1.60;0.30;;;;;;;10.49;54.41;96176.66;6278262;28;20685;-36
2023/03/14 12:25:33;;;;;;;0.20;0.20;;;;;;;10.57;55.38;96199.22;6282456;28;20227;-36
2023/03/14 12:28:35;;;;;;;0.30;0.30;;;;;;;10.45;55.04;96185.50;6284834;28;20232;-37
2023/03/14 12:32:00;;;;;;;0.47;0.30;;;;;;;10.51;54.91;96193.16;6282209;28;20243;-37
2023/03/14 12:35:35;;;;;;;1.30;0.53;;;;;;;10.53;54.42;96200.84;6280999;28;20238;-37
2023/03/14 12:38:59;;;;;;;0.53;0.30;;;;;;;10.48;54.43;96192.91;6286553;28;20230;-35
2023/03/14 12:42:20;;;;;;;1.73;0.50;;;;;;;10.58;54.25;96177.63;6282706;28;20269;-35
2023/03/14 12:45:27;;;;;;;1.03;0.30;;;;;;;10.71;53.79;96165.56;6283473;28;20243;-36
2023/03/14 12:48:29;;;;;;;1.80;0.47;;;;;;;10.74;53.96;96153.56;6260623;28;20572;-36
2023/03/14 12:51:36;;;;;;;0.57;0.30;;;;;;;11.04;53.69;96157.81;6280442;28;20635;-36
2023/03/14 12:55:15;;;;;;;0.60;0.20;;;;;;;11.34;53.01;96151.38;6285884;28;20274;-36
2023/03/14 12:58:30;;;;;;;0.33;0.20;;;;;;;11.51;52.22;96164.22;6282647;28;20675;-37
2023/03/14 13:01:34;;;;;;;0.70;0.43;;;;;;;11.31;52.11;96155.38;6281454;28;20424;-36
2023/03/14 13:05:02;;;;;;;0.20;0.20;;;;;;;11.45;52.79;96163.50;6286936;28;20269;-36
2023/03/14 13:08:06;;;;;;;0.30;0.10;;;;;;;11.38;51.96;96157.72;6280422;28;20228;-37
2023/03/14 13:11:29;;;;;;;0.30;0.30;;;;;;;11.35;51.97;96167.06;6285612;28;20330;-36
2023/03/14 13:14:31;;;;;;;0.53;0.30;;;;;;;11.39;52.07;96169.19;6280634;28;20259;-36
2023/03/14 13:17:33;;;;;;;0.30;0.30;;;;;;;11.33;51.93;96177.22;6279505;28;20235;-36
2023/03/14 13:20:51;;;;;;;0.23;0.20;;;;;;;11.29;52.13;96175.41;6282446;28;20725;-36
2023/03/14 13:23:59;;;;;;;0.40;0.20;;;;;;;10.67;52.98;96083.84;6281931;28;20237;-36
2023/03/14 13:27:01;;;;;;;0.20;0.20;;;;;;;11.18;52.83;96168.59;6276488;28;20244;-36
2023/03/14 13:30:15;;;;;;;0.63;0.47;;;;;;;11.06;52.67;96172.44;6284379;28;20225;-35
2023/03/14 13:33:22;;;;;;;0.10;0.10;;;;;;;10.96;52.88;96169.06;6282392;28;20585;-36
2023/03/14 13:36:26;;;;;;;0.10;0.10;;;;;;;10.79;53.85;96164.19;6280944;28;20534;-36
2023/03/14 13:39:29;;;;;;;0.20;0.20;;;;;;;10.72;53.68;96182.34;6284215;28;20315;-36
2023/03/14 13:42:32;;;;;;;0.17;0.17;;;;;;;10.67;53.67;96182.38;6282684;28;20238;-36
2023/03/14 13:45:44;;;;;;;0.20;0.20;;;;;;;10.52;54.08;96183.28;6284626;28;20252;-36
2023/03/14 13:49:17;;;;;;;0.17;0.17;;;;;;;10.20;54.20;96141.97;6285615;28;20755;-37
2023/03/14 13:52:35;;;;;;;0.13;0.13;;;;;;;10.41;54.24;96179.91;6281337;28;20251;-36
2023/03/14 13:55:38;;;;;;;0.10;0.10;;;;;;;10.28;54.73;96212.47;6284851;28;20238;-36
2023/03/14 13:58:41;;;;;;;0.30;0.20;;;;;;;10.24;55.78;96193.59;6285952;28;20857;-36
2023/03/14 14:01:43;;;;;;;0.17;0.17;;;;;;;10.37;56.00;96202.84;6286781;28;20736;-36
2023/03/14 14:04:47;;;;;;;0.20;0.20;;;;;;;10.16;55.75;96183.50;6288596;28;20227;-37
2023/03/14 14:07:51;;;;;;;0.10;0.10;;;;;;;10.29;55.43;96204.19;6283691;28;20240;-36
2023/03/14 14:11:00;;;;;;;0.30;0.20;;;;;;;10.30;55.65;96202.34;6290052;28;20239;-36
2023/03/14 14:14:03;;;;;;;0.20;0.17;;;;;;;10.33;54.83;96193.81;6284210;28;20231;-37
2023/03/14 14:17:17;;;;;;;0.83;0.20;;;;;;;10.39;55.04;96189.22;6286988;28;20230;-36
2023/03/14 14:20:33;;;;;;;0.77;0.20;;;;;;;10.40;54.75;96180.19;6289192;28;20761;-36
2023/03/14 14:23:38;;;;;;;0.30;0.20;;;;;;;10.51;54.86;96179.03;6287464;28;20835;-37
2023/03/14 14:26:58;;;;;;;0.30;0.13;;;;;;;10.54;53.42;96186.47;6284604;28;20290;-37
2023/03/14 14:30:06;;;;;;;0.30;0.20;;;;;;;10.58;53.45;96180.31;6272213;28;20305;-37
2023/03/14 14:33:27;;;;;;;0.20;0.20;;;;;;;10.36;53.03;96156.00;6265758;28;20234;-36
2023/03/14 14:36:46;;;;;;;0.10;0.10;;;;;;;10.51;52.72;96169.19;6286954;28;20239;-36
2023/03/14 14:39:51;;;;;;;0.20;0.20;;;;;;;10.66;52.72;96167.47;6282250;28;20252;-36
2023/03/14 14:43:01;;;;;;;0.20;0.20;;;;;;;10.67;52.74;96159.19;6285951;28;20905;-37
2023/03/14 14:46:08;;;;;;;0.20;0.20;;;;;;;10.63;53.20;96168.03;6285278;28;20245;-36
2023/03/14 14:49:14;;;;;;;0.20;0.20;;;;;;;10.69;52.97;96173.06;6284321;28;20237;-37